sensor_id;sensor_type;location;lat;lon;timestamp;P1;P2;P0
55549;PMS7003;41397;49.972;18.944;2023-04-07T00:00:37;30;27;19
55549;PMS7003;41397;49.972;18.944;2023-04-07T00:06:58;35;31;19
55549;PMS7003;41397;49.972;18.944;2023-04-07T00:10:00;30;28;19
55549;PMS7003;41397;49.972;18.944;2023-04-07T00:13:01;41;35;22
55549;PMS7003;41397;49.972;18.944;2023-04-07T00:16:03;42;37;21
55549;PMS7003;41397;49.972;18.944;2023-04-07T00:19:06;42;34;21
55549;PMS7003;41397;49.972;18.944;2023-04-07T00:22:08;37;33;19
55549;PMS7003;41397;49.972;18.944;2023-04-07T00:25:10;38;32;20
55549;PMS7003;41397;49.972;18.944;2023-04-07T00:28:11;31;28;18
55549;PMS7003;41397;49.972;18.944;2023-04-07T00:31:14;42;36;23
55549;PMS7003;41397;49.972;18.944;2023-04-07T00:34:16;34;30;19
55549;PMS7003;41397;49.972;18.944;2023-04-07T00:37:17;27;26;15
55549;PMS7003;41397;49.972;18.944;2023-04-07T00:40:19;40;32;21
55549;PMS7003;41397;49.972;18.944;2023-04-07T00:43:23;35;30;20
55549;PMS7003;41397;49.972;18.944;2023-04-07T00:46:25;34;27;18
55549;PMS7003;41397;49.972;18.944;2023-04-07T00:49:26;40;35;20
55549;PMS7003;41397;49.972;18.944;2023-04-07T00:52:29;39;31;19
55549;PMS7003;41397;49.972;18.944;2023-04-07T00:55:33;28;26;18
55549;PMS7003;41397;49.972;18.944;2023-04-07T00:58:34;26;25;20
55549;PMS7003;41397;49.972;18.944;2023-04-07T01:04:50;28;27;17
55549;PMS7003;41397;49.972;18.944;2023-04-07T01:14:22;38;32;22
55549;PMS7003;41397;49.972;18.944;2023-04-07T01:17:24;35;29;17
55549;PMS7003;41397;49.972;18.944;2023-04-07T01:20:29;39;31;20
55549;PMS7003;41397;49.972;18.944;2023-04-07T01:23:44;32;29;18
55549;PMS7003;41397;49.972;18.944;2023-04-07T01:26:47;35;31;20
55549;PMS7003;41397;49.972;18.944;2023-04-07T01:29:50;38;34;23
55549;PMS7003;41397;49.972;18.944;2023-04-07T01:32:53;32;30;19
55549;PMS7003;41397;49.972;18.944;2023-04-07T01:35:58;34;31;19
55549;PMS7003;41397;49.972;18.944;2023-04-07T01:39:01;44;33;19
55549;PMS7003;41397;49.972;18.944;2023-04-07T01:42:03;35;31;18
55549;PMS7003;41397;49.972;18.944;2023-04-07T01:45:11;38;33;19
55549;PMS7003;41397;49.972;18.944;2023-04-07T01:48:14;37;33;20
55549;PMS7003;41397;49.972;18.944;2023-04-07T01:51:18;32;29;17
55549;PMS7003;41397;49.972;18.944;2023-04-07T01:54:21;32;30;21
55549;PMS7003;41397;49.972;18.944;2023-04-07T01:57:23;39;31;21
55549;PMS7003;41397;49.972;18.944;2023-04-07T02:00:25;32;29;20
55549;PMS7003;41397;49.972;18.944;2023-04-07T02:03:28;33;30;20
55549;PMS7003;41397;49.972;18.944;2023-04-07T02:09:50;24;24;17
55549;PMS7003;41397;49.972;18.944;2023-04-07T02:12:58;33;29;19
55549;PMS7003;41397;49.972;18.944;2023-04-07T02:16:05;29;27;18
55549;PMS7003;41397;49.972;18.944;2023-04-07T02:19:08;34;30;21
55549;PMS7003;41397;49.972;18.944;2023-04-07T02:22:09;37;32;20
55549;PMS7003;41397;49.972;18.944;2023-04-07T02:28:25;33;30;20
55549;PMS7003;41397;49.972;18.944;2023-04-07T02:31:31;33;30;19
55549;PMS7003;41397;49.972;18.944;2023-04-07T02:34:32;29;26;18
55549;PMS7003;41397;49.972;18.944;2023-04-07T02:37:34;29;27;18
55549;PMS7003;41397;49.972;18.944;2023-04-07T02:40:35;25;23;14
55549;PMS7003;41397;49.972;18.944;2023-04-07T02:43:39;37;30;21
55549;PMS7003;41397;49.972;18.944;2023-04-07T02:46:40;34;29;19
55549;PMS7003;41397;49.972;18.944;2023-04-07T02:49:42;33;30;20
55549;PMS7003;41397;49.972;18.944;2023-04-07T02:52:43;30;28;18
55549;PMS7003;41397;49.972;18.944;2023-04-07T02:55:47;27;26;19
55549;PMS7003;41397;49.972;18.944;2023-04-07T02:58:49;29;27;18
55549;PMS7003;41397;49.972;18.944;2023-04-07T03:01:50;25;25;16
55549;PMS7003;41397;49.972;18.944;2023-04-07T03:04:51;31;28;17
55549;PMS7003;41397;49.972;18.944;2023-04-07T03:07:56;29;26;17
55549;PMS7003;41397;49.972;18.944;2023-04-07T03:10:57;30;28;19
55549;PMS7003;41397;49.972;18.944;2023-04-07T03:13:58;42;29;19
55549;PMS7003;41397;49.972;18.944;2023-04-07T03:17:00;29;27;18
55549;PMS7003;41397;49.972;18.944;2023-04-07T03:20:04;22;22;15
55549;PMS7003;41397;49.972;18.944;2023-04-07T03:23:06;31;26;15
55549;PMS7003;41397;49.972;18.944;2023-04-07T03:26:08;27;25;16
55549;PMS7003;41397;49.972;18.944;2023-04-07T03:29:09;30;27;18
55549;PMS7003;41397;49.972;18.944;2023-04-07T03:32:11;30;29;20
55549;PMS7003;41397;49.972;18.944;2023-04-07T03:35:16;27;24;18
55549;PMS7003;41397;49.972;18.944;2023-04-07T03:38:17;27;26;17
55549;PMS7003;41397;49.972;18.944;2023-04-07T03:41:19;24;23;16
55549;PMS7003;41397;49.972;18.944;2023-04-07T03:44:21;30;23;17
55549;PMS7003;41397;49.972;18.944;2023-04-07T03:47:23;23;22;16
55549;PMS7003;41397;49.972;18.944;2023-04-07T03:53:55;30;29;19
55549;PMS7003;41397;49.972;18.944;2023-04-07T04:00:26;31;29;19
55549;PMS7003;41397;49.972;18.944;2023-04-07T04:03:30;29;28;18
55549;PMS7003;41397;49.972;18.944;2023-04-07T04:06:32;27;27;17
55549;PMS7003;41397;49.972;18.944;2023-04-07T04:09:33;30;29;18
55549;PMS7003;41397;49.972;18.944;2023-04-07T04:12:35;24;23;16
55549;PMS7003;41397;49.972;18.944;2023-04-07T04:15:37;30;27;18
55549;PMS7003;41397;49.972;18.944;2023-04-07T04:18:38;30;29;19
55549;PMS7003;41397;49.972;18.944;2023-04-07T04:21:39;35;31;19
55549;PMS7003;41397;49.972;18.944;2023-04-07T04:24:41;27;26;16
55549;PMS7003;41397;49.972;18.944;2023-04-07T04:27:42;36;32;21
55549;PMS7003;41397;49.972;18.944;2023-04-07T04:30:46;27;26;17
55549;PMS7003;41397;49.972;18.944;2023-04-07T04:33:48;31;26;17
55549;PMS7003;41397;49.972;18.944;2023-04-07T04:36:50;40;35;19
55549;PMS7003;41397;49.972;18.944;2023-04-07T04:39:51;30;25;18
55549;PMS7003;41397;49.972;18.944;2023-04-07T04:42:54;27;26;18
55549;PMS7003;41397;49.972;18.944;2023-04-07T04:45:55;27;26;16
55549;PMS7003;41397;49.972;18.944;2023-04-07T04:48:58;40;34;20
55549;PMS7003;41397;49.972;18.944;2023-04-07T04:52:00;23;23;16
55549;PMS7003;41397;49.972;18.944;2023-04-07T04:55:02;30;27;16
55549;PMS7003;41397;49.972;18.944;2023-04-07T04:58:03;26;25;18
55549;PMS7003;41397;49.972;18.944;2023-04-07T05:01:05;31;29;19
55549;PMS7003;41397;49.972;18.944;2023-04-07T05:04:07;22;22;15
55549;PMS7003;41397;49.972;18.944;2023-04-07T05:07:10;25;24;16
55549;PMS7003;41397;49.972;18.944;2023-04-07T05:10:11;23;23;13
55549;PMS7003;41397;49.972;18.944;2023-04-07T05:13:13;26;26;18
55549;PMS7003;41397;49.972;18.944;2023-04-07T05:16:15;34;28;19
55549;PMS7003;41397;49.972;18.944;2023-04-07T05:19:18;35;29;17
55549;PMS7003;41397;49.972;18.944;2023-04-07T05:25:54;28;27;18
55549;PMS7003;41397;49.972;18.944;2023-04-07T05:28:55;22;21;15
55549;PMS7003;41397;49.972;18.944;2023-04-07T05:31:57;28;26;17
55549;PMS7003;41397;49.972;18.944;2023-04-07T05:42:03;29;26;17
55549;PMS7003;41397;49.972;18.944;2023-04-07T05:45:05;27;26;19
55549;PMS7003;41397;49.972;18.944;2023-04-07T05:48:14;26;26;17
55549;PMS7003;41397;49.972;18.944;2023-04-07T05:51:19;28;26;18
55549;PMS7003;41397;49.972;18.944;2023-04-07T05:54:24;27;26;16
55549;PMS7003;41397;49.972;18.944;2023-04-07T05:57:33;39;34;17
55549;PMS7003;41397;49.972;18.944;2023-04-07T06:01:01;26;25;15
55549;PMS7003;41397;49.972;18.944;2023-04-07T06:04:03;33;29;19
55549;PMS7003;41397;49.972;18.944;2023-04-07T06:07:04;34;29;17
55549;PMS7003;41397;49.972;18.944;2023-04-07T06:10:07;38;29;16
55549;PMS7003;41397;49.972;18.944;2023-04-07T06:13:09;29;28;18
55549;PMS7003;41397;49.972;18.944;2023-04-07T06:16:21;26;25;18
55549;PMS7003;41397;49.972;18.944;2023-04-07T06:19:23;26;25;18
55549;PMS7003;41397;49.972;18.944;2023-04-07T06:22:27;36;32;21
55549;PMS7003;41397;49.972;18.944;2023-04-07T06:25:32;22;20;15
55549;PMS7003;41397;49.972;18.944;2023-04-07T06:32:12;26;24;16
55549;PMS7003;41397;49.972;18.944;2023-04-07T06:35:33;33;30;17
55549;PMS7003;41397;49.972;18.944;2023-04-07T06:38:35;35;27;16
55549;PMS7003;41397;49.972;18.944;2023-04-07T06:41:38;24;24;16
55549;PMS7003;41397;49.972;18.944;2023-04-07T06:48:18;35;31;18
55549;PMS7003;41397;49.972;18.944;2023-04-07T06:54:52;31;29;19
55549;PMS7003;41397;49.972;18.944;2023-04-07T06:57:53;40;30;18
55549;PMS7003;41397;49.972;18.944;2023-04-07T07:00:54;30;27;17
55549;PMS7003;41397;49.972;18.944;2023-04-07T07:03:56;20;20;14
55549;PMS7003;41397;49.972;18.944;2023-04-07T07:06:58;27;25;17
55549;PMS7003;41397;49.972;18.944;2023-04-07T07:09:59;28;25;17
55549;PMS7003;41397;49.972;18.944;2023-04-07T07:13:01;28;24;16
55549;PMS7003;41397;49.972;18.944;2023-04-07T07:16:03;26;26;14
55549;PMS7003;41397;49.972;18.944;2023-04-07T07:19:05;32;27;18
55549;PMS7003;41397;49.972;18.944;2023-04-07T07:22:06;2;1;0
55549;PMS7003;41397;49.972;18.944;2023-04-07T07:25:08;27;26;17
55549;PMS7003;41397;49.972;18.944;2023-04-07T07:31:41;31;27;17
55549;PMS7003;41397;49.972;18.944;2023-04-07T07:34:46;28;25;16
55549;PMS7003;41397;49.972;18.944;2023-04-07T07:38:04;26;26;18
55549;PMS7003;41397;49.972;18.944;2023-04-07T07:41:06;28;23;17
55549;PMS7003;41397;49.972;18.944;2023-04-07T07:44:08;34;32;18
55549;PMS7003;41397;49.972;18.944;2023-04-07T07:47:09;25;25;14
55549;PMS7003;41397;49.972;18.944;2023-04-07T08:04:09;31;29;19
55549;PMS7003;41397;49.972;18.944;2023-04-07T08:07:10;28;26;15
55549;PMS7003;41397;49.972;18.944;2023-04-07T08:10:12;24;23;15
55549;PMS7003;41397;49.972;18.944;2023-04-07T08:13:14;22;22;18
55549;PMS7003;41397;49.972;18.944;2023-04-07T08:23:06;20;20;11
55549;PMS7003;41397;49.972;18.944;2023-04-07T08:33:02;15;15;11
55549;PMS7003;41397;49.972;18.944;2023-04-07T08:46:41;15;15;11
55549;PMS7003;41397;49.972;18.944;2023-04-07T08:53:17;16;16;10
55549;PMS7003;41397;49.972;18.944;2023-04-07T08:56:32;22;22;16
55549;PMS7003;41397;49.972;18.944;2023-04-07T09:03:10;12;12;10
55549;PMS7003;41397;49.972;18.944;2023-04-07T09:09:46;19;18;13
55549;PMS7003;41397;49.972;18.944;2023-04-07T09:16:28;23;23;15
55549;PMS7003;41397;49.972;18.944;2023-04-07T09:44:10;24;24;13
55549;PMS7003;41397;49.972;18.944;2023-04-07T10:01:20;31;24;16
55549;PMS7003;41397;49.972;18.944;2023-04-07T10:04:23;19;19;13
55549;PMS7003;41397;49.972;18.944;2023-04-07T10:07:52;14;14;13
55549;PMS7003;41397;49.972;18.944;2023-04-07T10:14:44;18;18;12
55549;PMS7003;41397;49.972;18.944;2023-04-07T10:18:01;14;14;10
55549;PMS7003;41397;49.972;18.944;2023-04-07T10:28:04;22;18;12
55549;PMS7003;41397;49.972;18.944;2023-04-07T10:31:20;19;19;15
55549;PMS7003;41397;49.972;18.944;2023-04-07T10:38:09;17;16;12
55549;PMS7003;41397;49.972;18.944;2023-04-07T10:54:23;22;22;12
55549;PMS7003;41397;49.972;18.944;2023-04-07T10:57:34;15;15;12
55549;PMS7003;41397;49.972;18.944;2023-04-07T11:00:37;20;20;12
55549;PMS7003;41397;49.972;18.944;2023-04-07T11:03:51;16;16;10
55549;PMS7003;41397;49.972;18.944;2023-04-07T11:10:18;16;16;14
55549;PMS7003;41397;49.972;18.944;2023-04-07T11:13:22;17;17;11
55549;PMS7003;41397;49.972;18.944;2023-04-07T11:16:33;16;16;9
55549;PMS7003;41397;49.972;18.944;2023-04-07T11:19:49;11;11;8
55549;PMS7003;41397;49.972;18.944;2023-04-07T11:26:14;33;26;11
55549;PMS7003;41397;49.972;18.944;2023-04-07T11:29:19;15;15;11
55549;PMS7003;41397;49.972;18.944;2023-04-07T11:32:47;17;17;13
55549;PMS7003;41397;49.972;18.944;2023-04-07T11:35:53;13;13;10
55549;PMS7003;41397;49.972;18.944;2023-04-07T11:46:31;26;25;14
55549;PMS7003;41397;49.972;18.944;2023-04-07T11:49:13;25;24;16
55549;PMS7003;41397;49.972;18.944;2023-04-07T11:52:16;11;11;8
55549;PMS7003;41397;49.972;18.944;2023-04-07T11:55:20;17;17;11
55549;PMS7003;41397;49.972;18.944;2023-04-07T11:58:24;11;11;9
55549;PMS7003;41397;49.972;18.944;2023-04-07T12:01:37;23;20;14
55549;PMS7003;41397;49.972;18.944;2023-04-07T12:04:54;24;22;15
55549;PMS7003;41397;49.972;18.944;2023-04-07T12:08:00;27;25;15
55549;PMS7003;41397;49.972;18.944;2023-04-07T12:14:38;15;15;10
55549;PMS7003;41397;49.972;18.944;2023-04-07T12:18:03;13;10;7
55549;PMS7003;41397;49.972;18.944;2023-04-07T12:21:15;16;16;14
55549;PMS7003;41397;49.972;18.944;2023-04-07T12:24:26;13;13;8
55549;PMS7003;41397;49.972;18.944;2023-04-07T12:27:28;18;18;12
55549;PMS7003;41397;49.972;18.944;2023-04-07T12:30:36;25;21;14
55549;PMS7003;41397;49.972;18.944;2023-04-07T12:33:37;33;26;18
55549;PMS7003;41397;49.972;18.944;2023-04-07T12:36:39;24;22;16
55549;PMS7003;41397;49.972;18.944;2023-04-07T12:39:40;24;24;17
55549;PMS7003;41397;49.972;18.944;2023-04-07T12:42:44;20;20;12
55549;PMS7003;41397;49.972;18.944;2023-04-07T12:49:00;22;22;16
55549;PMS7003;41397;49.972;18.944;2023-04-07T12:52:03;28;26;14
55549;PMS7003;41397;49.972;18.944;2023-04-07T12:55:06;30;25;12
55549;PMS7003;41397;49.972;18.944;2023-04-07T13:01:20;29;27;18
55549;PMS7003;41397;49.972;18.944;2023-04-07T13:07:53;28;27;18
55549;PMS7003;41397;49.972;18.944;2023-04-07T13:14:25;30;28;19
55549;PMS7003;41397;49.972;18.944;2023-04-07T13:17:29;38;33;22
55549;PMS7003;41397;49.972;18.944;2023-04-07T13:20:39;37;33;21
55549;PMS7003;41397;49.972;18.944;2023-04-07T13:23:49;23;21;14
55549;PMS7003;41397;49.972;18.944;2023-04-07T13:26:52;28;27;16
55549;PMS7003;41397;49.972;18.944;2023-04-07T13:29:53;35;31;19
55549;PMS7003;41397;49.972;18.944;2023-04-07T13:32:55;28;25;16
55549;PMS7003;41397;49.972;18.944;2023-04-07T13:35:57;28;25;17
55549;PMS7003;41397;49.972;18.944;2023-04-07T13:38:58;36;32;18
55549;PMS7003;41397;49.972;18.944;2023-04-07T13:42:02;28;26;17
55549;PMS7003;41397;49.972;18.944;2023-04-07T13:45:05;48;38;23
55549;PMS7003;41397;49.972;18.944;2023-04-07T13:48:07;43;35;22
55549;PMS7003;41397;49.972;18.944;2023-04-07T13:51:08;31;29;18
55549;PMS7003;41397;49.972;18.944;2023-04-07T13:54:11;39;32;21
55549;PMS7003;41397;49.972;18.944;2023-04-07T13:57:12;40;34;24
55549;PMS7003;41397;49.972;18.944;2023-04-07T14:00:20;35;31;17
55549;PMS7003;41397;49.972;18.944;2023-04-07T14:03:21;32;29;20
55549;PMS7003;41397;49.972;18.944;2023-04-07T14:06:23;35;31;20
55549;PMS7003;41397;49.972;18.944;2023-04-07T14:09:26;37;32;18
55549;PMS7003;41397;49.972;18.944;2023-04-07T14:15:52;24;23;17
55549;PMS7003;41397;49.972;18.944;2023-04-07T14:19:05;33;29;16
55549;PMS7003;41397;49.972;18.944;2023-04-07T14:22:17;24;24;16
55549;PMS7003;41397;49.972;18.944;2023-04-07T14:25:44;30;25;16
55549;PMS7003;41397;49.972;18.944;2023-04-07T14:28:58;25;24;17
55549;PMS7003;41397;49.972;18.944;2023-04-07T14:32:28;37;32;23
55549;PMS7003;41397;49.972;18.944;2023-04-07T14:39:05;40;33;19
55549;PMS7003;41397;49.972;18.944;2023-04-07T14:42:13;38;33;21
55549;PMS7003;41397;49.972;18.944;2023-04-07T14:49:08;39;33;21
55549;PMS7003;41397;49.972;18.944;2023-04-07T14:52:38;38;33;21
55549;PMS7003;41397;49.972;18.944;2023-04-07T14:55:44;31;29;21
55549;PMS7003;41397;49.972;18.944;2023-04-07T14:58:45;37;33;22
55549;PMS7003;41397;49.972;18.944;2023-04-07T15:01:47;48;41;24
55549;PMS7003;41397;49.972;18.944;2023-04-07T15:04:48;41;35;23
55549;PMS7003;41397;49.972;18.944;2023-04-07T15:07:50;41;35;22
55549;PMS7003;41397;49.972;18.944;2023-04-07T15:10:52;35;31;22
55549;PMS7003;41397;49.972;18.944;2023-04-07T15:17:28;49;39;20
55549;PMS7003;41397;49.972;18.944;2023-04-07T15:24:06;36;31;21
55549;PMS7003;41397;49.972;18.944;2023-04-07T15:30:59;39;34;21
55549;PMS7003;41397;49.972;18.944;2023-04-07T15:37:52;41;33;23
55549;PMS7003;41397;49.972;18.944;2023-04-07T15:40:56;42;37;23
55549;PMS7003;41397;49.972;18.944;2023-04-07T15:43:58;38;34;22
55549;PMS7003;41397;49.972;18.944;2023-04-07T15:47:06;43;36;22
55549;PMS7003;41397;49.972;18.944;2023-04-07T15:50:08;41;35;21
55549;PMS7003;41397;49.972;18.944;2023-04-07T15:53:10;32;29;20
55549;PMS7003;41397;49.972;18.944;2023-04-07T15:56:12;35;31;22
55549;PMS7003;41397;49.972;18.944;2023-04-07T15:59:14;42;31;19
55549;PMS7003;41397;49.972;18.944;2023-04-07T16:02:16;31;28;20
55549;PMS7003;41397;49.972;18.944;2023-04-07T16:05:17;33;30;21
55549;PMS7003;41397;49.972;18.944;2023-04-07T16:08:19;37;32;20
55549;PMS7003;41397;49.972;18.944;2023-04-07T16:11:22;41;35;21
55549;PMS7003;41397;49.972;18.944;2023-04-07T16:14:23;41;33;16
55549;PMS7003;41397;49.972;18.944;2023-04-07T16:17:28;38;31;17
55549;PMS7003;41397;49.972;18.944;2023-04-07T16:20:30;39;34;20
55549;PMS7003;41397;49.972;18.944;2023-04-07T16:23:31;28;26;15
55549;PMS7003;41397;49.972;18.944;2023-04-07T16:26:33;28;25;15
55549;PMS7003;41397;49.972;18.944;2023-04-07T16:29:34;38;33;21
55549;PMS7003;41397;49.972;18.944;2023-04-07T16:32:36;32;28;18
55549;PMS7003;41397;49.972;18.944;2023-04-07T16:35:38;44;32;20
55549;PMS7003;41397;49.972;18.944;2023-04-07T16:38:39;28;25;17
55549;PMS7003;41397;49.972;18.944;2023-04-07T16:42:33;27;26;15
55549;PMS7003;41397;49.972;18.944;2023-04-07T16:45:36;32;29;20
55549;PMS7003;41397;49.972;18.944;2023-04-07T16:48:37;45;36;20
55549;PMS7003;41397;49.972;18.944;2023-04-07T16:51:41;40;35;23
55549;PMS7003;41397;49.972;18.944;2023-04-07T16:54:43;43;36;23
55549;PMS7003;41397;49.972;18.944;2023-04-07T16:57:46;51;43;26
55549;PMS7003;41397;49.972;18.944;2023-04-07T17:00:48;44;35;22
55549;PMS7003;41397;49.972;18.944;2023-04-07T17:03:50;51;43;26
55549;PMS7003;41397;49.972;18.944;2023-04-07T17:06:52;56;44;29
55549;PMS7003;41397;49.972;18.944;2023-04-07T17:09:53;58;46;26
55549;PMS7003;41397;49.972;18.944;2023-04-07T17:12:55;59;46;30
55549;PMS7003;41397;49.972;18.944;2023-04-07T17:15:58;44;34;21
55549;PMS7003;41397;49.972;18.944;2023-04-07T17:19:00;45;37;23
55549;PMS7003;41397;49.972;18.944;2023-04-07T17:22:02;43;37;25
55549;PMS7003;41397;49.972;18.944;2023-04-07T17:25:04;50;40;25
55549;PMS7003;41397;49.972;18.944;2023-04-07T17:28:06;42;35;23
55549;PMS7003;41397;49.972;18.944;2023-04-07T17:31:07;42;36;22
55549;PMS7003;41397;49.972;18.944;2023-04-07T17:34:13;42;36;24
55549;PMS7003;41397;49.972;18.944;2023-04-07T17:37:14;47;37;24
55549;PMS7003;41397;49.972;18.944;2023-04-07T17:40:16;44;37;24
55549;PMS7003;41397;49.972;18.944;2023-04-07T17:43:18;43;37;24
55549;PMS7003;41397;49.972;18.944;2023-04-07T17:46:20;47;37;23
55549;PMS7003;41397;49.972;18.944;2023-04-07T17:49:22;49;38;24
55549;PMS7003;41397;49.972;18.944;2023-04-07T17:52:26;43;35;23
55549;PMS7003;41397;49.972;18.944;2023-04-07T17:55:31;50;36;19
55549;PMS7003;41397;49.972;18.944;2023-04-07T17:58:34;42;34;20
55549;PMS7003;41397;49.972;18.944;2023-04-07T18:01:50;39;34;21
55549;PMS7003;41397;49.972;18.944;2023-04-07T18:04:51;45;35;21
55549;PMS7003;41397;49.972;18.944;2023-04-07T18:07:54;44;35;22
55549;PMS7003;41397;49.972;18.944;2023-04-07T18:10:56;38;33;22
55549;PMS7003;41397;49.972;18.944;2023-04-07T18:13:57;45;38;24
55549;PMS7003;41397;49.972;18.944;2023-04-07T18:16:59;48;40;25
55549;PMS7003;41397;49.972;18.944;2023-04-07T18:20:02;55;42;23
55549;PMS7003;41397;49.972;18.944;2023-04-07T18:23:13;44;37;23
55549;PMS7003;41397;49.972;18.944;2023-04-07T18:29:55;48;40;23
55549;PMS7003;41397;49.972;18.944;2023-04-07T18:32:57;42;35;24
55549;PMS7003;41397;49.972;18.944;2023-04-07T18:36:00;42;34;20
55549;PMS7003;41397;49.972;18.944;2023-04-07T18:39:07;21;21;7
55549;PMS7003;41397;49.972;18.944;2023-04-07T18:42:09;53;42;25
55549;PMS7003;41397;49.972;18.944;2023-04-07T18:45:10;45;38;23
55549;PMS7003;41397;49.972;18.944;2023-04-07T18:48:12;45;37;24
55549;PMS7003;41397;49.972;18.944;2023-04-07T18:51:15;57;43;26
55549;PMS7003;41397;49.972;18.944;2023-04-07T18:54:17;49;40;25
55549;PMS7003;41397;49.972;18.944;2023-04-07T18:57:18;43;37;23
55549;PMS7003;41397;49.972;18.944;2023-04-07T19:00:21;57;47;28
55549;PMS7003;41397;49.972;18.944;2023-04-07T19:03:23;59;49;29
55549;PMS7003;41397;49.972;18.944;2023-04-07T19:06:27;53;43;27
55549;PMS7003;41397;49.972;18.944;2023-04-07T19:09:32;60;51;31
55549;PMS7003;41397;49.972;18.944;2023-04-07T19:12:34;64;46;31
55549;PMS7003;41397;49.972;18.944;2023-04-07T19:15:36;68;56;32
55549;PMS7003;41397;49.972;18.944;2023-04-07T19:18:40;58;50;30
55549;PMS7003;41397;49.972;18.944;2023-04-07T19:21:42;63;47;29
55549;PMS7003;41397;49.972;18.944;2023-04-07T19:24:44;63;50;35
55549;PMS7003;41397;49.972;18.944;2023-04-07T19:27:46;54;44;28
55549;PMS7003;41397;49.972;18.944;2023-04-07T19:30:48;56;42;26
55549;PMS7003;41397;49.972;18.944;2023-04-07T19:33:49;49;41;26
55549;PMS7003;41397;49.972;18.944;2023-04-07T19:36:51;45;38;23
55549;PMS7003;41397;49.972;18.944;2023-04-07T19:39:53;49;40;24
55549;PMS7003;41397;49.972;18.944;2023-04-07T19:42:54;44;37;23
55549;PMS7003;41397;49.972;18.944;2023-04-07T19:49:18;41;35;21
55549;PMS7003;41397;49.972;18.944;2023-04-07T19:52:20;45;37;20
55549;PMS7003;41397;49.972;18.944;2023-04-07T19:55:25;40;35;23
55549;PMS7003;41397;49.972;18.944;2023-04-07T19:58:34;36;30;19
55549;PMS7003;41397;49.972;18.944;2023-04-07T20:01:38;37;32;20
55549;PMS7003;41397;49.972;18.944;2023-04-07T20:04:42;46;38;25
55549;PMS7003;41397;49.972;18.944;2023-04-07T20:11:16;36;32;18
55549;PMS7003;41397;49.972;18.944;2023-04-07T20:14:18;43;37;24
55549;PMS7003;41397;49.972;18.944;2023-04-07T20:17:20;41;36;21
55549;PMS7003;41397;49.972;18.944;2023-04-07T20:20:24;42;34;20
55549;PMS7003;41397;49.972;18.944;2023-04-07T20:23:55;47;37;22
55549;PMS7003;41397;49.972;18.944;2023-04-07T20:26:56;46;39;23
55549;PMS7003;41397;49.972;18.944;2023-04-07T20:30:03;42;36;22
55549;PMS7003;41397;49.972;18.944;2023-04-07T20:33:13;38;33;20
55549;PMS7003;41397;49.972;18.944;2023-04-07T20:36:17;37;33;21
55549;PMS7003;41397;49.972;18.944;2023-04-07T20:39:19;33;30;19
55549;PMS7003;41397;49.972;18.944;2023-04-07T20:42:20;41;35;21
55549;PMS7003;41397;49.972;18.944;2023-04-07T20:45:22;40;33;19
55549;PMS7003;41397;49.972;18.944;2023-04-07T20:48:23;34;30;19
55549;PMS7003;41397;49.972;18.944;2023-04-07T20:51:26;47;39;25
55549;PMS7003;41397;49.972;18.944;2023-04-07T20:54:28;45;37;24
55549;PMS7003;41397;49.972;18.944;2023-04-07T20:57:30;46;40;24
55549;PMS7003;41397;49.972;18.944;2023-04-07T21:00:32;46;39;24
55549;PMS7003;41397;49.972;18.944;2023-04-07T21:03:37;51;38;24
55549;PMS7003;41397;49.972;18.944;2023-04-07T21:06:52;53;43;27
55549;PMS7003;41397;49.972;18.944;2023-04-07T21:09:56;58;48;29
55549;PMS7003;41397;49.972;18.944;2023-04-07T21:12:57;59;47;27
55549;PMS7003;41397;49.972;18.944;2023-04-07T21:15:59;51;41;26
55549;PMS7003;41397;49.972;18.944;2023-04-07T21:19:04;51;40;25
55549;PMS7003;41397;49.972;18.944;2023-04-07T21:22:06;51;41;26
55549;PMS7003;41397;49.972;18.944;2023-04-07T21:25:08;48;37;24
55549;PMS7003;41397;49.972;18.944;2023-04-07T21:28:10;48;40;25
55549;PMS7003;41397;49.972;18.944;2023-04-07T21:31:18;48;40;26
55549;PMS7003;41397;49.972;18.944;2023-04-07T21:34:23;37;32;20
55549;PMS7003;41397;49.972;18.944;2023-04-07T21:37:26;50;41;23
55549;PMS7003;41397;49.972;18.944;2023-04-07T21:40:27;38;33;21
55549;PMS7003;41397;49.972;18.944;2023-04-07T21:43:29;45;36;23
55549;PMS7003;41397;49.972;18.944;2023-04-07T21:46:30;41;35;21
55549;PMS7003;41397;49.972;18.944;2023-04-07T21:49:33;40;32;23
55549;PMS7003;41397;49.972;18.944;2023-04-07T21:52:38;46;35;20
55549;PMS7003;41397;49.972;18.944;2023-04-07T21:55:39;43;35;21
55549;PMS7003;41397;49.972;18.944;2023-04-07T21:58:41;47;35;21
55549;PMS7003;41397;49.972;18.944;2023-04-07T22:01:42;34;30;21
55549;PMS7003;41397;49.972;18.944;2023-04-07T22:04:46;46;35;21
55549;PMS7003;41397;49.972;18.944;2023-04-07T22:07:48;43;37;21
55549;PMS7003;41397;49.972;18.944;2023-04-07T22:10:50;40;35;21
55549;PMS7003;41397;49.972;18.944;2023-04-07T22:13:52;41;35;22
55549;PMS7003;41397;49.972;18.944;2023-04-07T22:16:53;42;35;23
55549;PMS7003;41397;49.972;18.944;2023-04-07T22:19:55;47;40;25
55549;PMS7003;41397;49.972;18.944;2023-04-07T22:22:57;40;33;21
55549;PMS7003;41397;49.972;18.944;2023-04-07T22:25:58;42;36;23
55549;PMS7003;41397;49.972;18.944;2023-04-07T22:29:00;40;34;21
55549;PMS7003;41397;49.972;18.944;2023-04-07T22:32:01;46;37;23
55549;PMS7003;41397;49.972;18.944;2023-04-07T22:35:02;27;26;19
55549;PMS7003;41397;49.972;18.944;2023-04-07T22:38:05;38;30;20
55549;PMS7003;41397;49.972;18.944;2023-04-07T22:41:07;48;38;24
55549;PMS7003;41397;49.972;18.944;2023-04-07T22:44:09;35;31;20
55549;PMS7003;41397;49.972;18.944;2023-04-07T22:47:10;44;36;21
55549;PMS7003;41397;49.972;18.944;2023-04-07T22:50:12;37;33;22
55549;PMS7003;41397;49.972;18.944;2023-04-07T22:53:15;35;31;21
55549;PMS7003;41397;49.972;18.944;2023-04-07T22:56:17;41;35;21
55549;PMS7003;41397;49.972;18.944;2023-04-07T22:59:19;43;36;22
55549;PMS7003;41397;49.972;18.944;2023-04-07T23:02:20;48;37;24
55549;PMS7003;41397;49.972;18.944;2023-04-07T23:05:23;36;32;19
55549;PMS7003;41397;49.972;18.944;2023-04-07T23:08:25;43;36;22
55549;PMS7003;41397;49.972;18.944;2023-04-07T23:11:26;40;32;20
55549;PMS7003;41397;49.972;18.944;2023-04-07T23:14:28;41;35;22
55549;PMS7003;41397;49.972;18.944;2023-04-07T23:17:31;61;50;27
55549;PMS7003;41397;49.972;18.944;2023-04-07T23:20:33;84;60;34